sensor_id;sensor_type;location;lat;lon;timestamp;P1;durP1;ratioP1;P2;durP2;ratioP2
70733;SDS011;58320;48.804;9.252;2022-09-02T00:01:02;7.32;;;5.45;;
70733;SDS011;58320;48.804;9.252;2022-09-02T00:03:44;8.57;;;5.65;;
70733;SDS011;58320;48.804;9.252;2022-09-02T00:06:11;6.45;;;5.05;;
70733;SDS011;58320;48.804;9.252;2022-09-02T00:08:37;8.30;;;5.97;;
70733;SDS011;58320;48.804;9.252;2022-09-02T00:11:05;8.13;;;5.73;;
70733;SDS011;58320;48.804;9.252;2022-09-02T00:13:32;6.68;;;5.03;;
70733;SDS011;58320;48.804;9.252;2022-09-02T00:16:01;7.22;;;5.35;;
70733;SDS011;58320;48.804;9.252;2022-09-02T00:18:29;8.57;;;5.03;;
70733;SDS011;58320;48.804;9.252;2022-09-02T00:20:56;6.95;;;5.50;;
70733;SDS011;58320;48.804;9.252;2022-09-02T00:23:22;6.20;;;4.93;;
70733;SDS011;58320;48.804;9.252;2022-09-02T00:25:47;6.40;;;4.78;;
70733;SDS011;58320;48.804;9.252;2022-09-02T00:28:14;8.00;;;5.80;;
70733;SDS011;58320;48.804;9.252;2022-09-02T00:30:41;7.40;;;5.40;;
70733;SDS011;58320;48.804;9.252;2022-09-02T00:33:09;9.83;;;5.57;;
70733;SDS011;58320;48.804;9.252;2022-09-02T00:35:36;7.15;;;5.15;;
70733;SDS011;58320;48.804;9.252;2022-09-02T00:38:02;9.38;;;5.38;;
70733;SDS011;58320;48.804;9.252;2022-09-02T00:40:30;8.95;;;5.47;;
70733;SDS011;58320;48.804;9.252;2022-09-02T00:43:00;7.00;;;5.30;;
70733;SDS011;58320;48.804;9.252;2022-09-02T00:45:26;7.70;;;5.45;;
70733;SDS011;58320;48.804;9.252;2022-09-02T00:47:51;8.32;;;5.45;;
70733;SDS011;58320;48.804;9.252;2022-09-02T00:50:19;7.85;;;5.43;;
70733;SDS011;58320;48.804;9.252;2022-09-02T00:52:50;8.40;;;5.10;;
70733;SDS011;58320;48.804;9.252;2022-09-02T00:55:25;6.85;;;4.95;;
70733;SDS011;58320;48.804;9.252;2022-09-02T00:58:37;9.80;;;5.35;;
70733;SDS011;58320;48.804;9.252;2022-09-02T01:00:51;8.65;;;5.45;;
70733;SDS011;58320;48.804;9.252;2022-09-02T01:03:21;7.53;;;5.10;;
70733;SDS011;58320;48.804;9.252;2022-09-02T01:05:49;6.90;;;5.20;;
70733;SDS011;58320;48.804;9.252;2022-09-02T01:08:18;6.82;;;5.18;;
70733;SDS011;58320;48.804;9.252;2022-09-02T01:10:49;6.93;;;4.82;;
70733;SDS011;58320;48.804;9.252;2022-09-02T01:13:20;6.40;;;4.82;;
70733;SDS011;58320;48.804;9.252;2022-09-02T01:15:55;6.18;;;4.93;;
70733;SDS011;58320;48.804;9.252;2022-09-02T01:18:35;6.00;;;4.30;;
70733;SDS011;58320;48.804;9.252;2022-09-02T01:21:03;7.43;;;4.88;;
70733;SDS011;58320;48.804;9.252;2022-09-02T01:23:29;6.57;;;4.68;;
70733;SDS011;58320;48.804;9.252;2022-09-02T01:25:56;6.18;;;4.75;;
70733;SDS011;58320;48.804;9.252;2022-09-02T01:28:23;6.95;;;4.80;;
70733;SDS011;58320;48.804;9.252;2022-09-02T01:30:50;6.80;;;4.37;;
70733;SDS011;58320;48.804;9.252;2022-09-02T01:33:19;6.70;;;4.53;;
70733;SDS011;58320;48.804;9.252;2022-09-02T01:35:47;6.43;;;4.75;;
70733;SDS011;58320;48.804;9.252;2022-09-02T01:38:13;8.38;;;4.68;;
70733;SDS011;58320;48.804;9.252;2022-09-02T01:40:40;7.18;;;4.60;;
70733;SDS011;58320;48.804;9.252;2022-09-02T01:43:08;5.80;;;4.60;;
70733;SDS011;58320;48.804;9.252;2022-09-02T01:45:43;7.35;;;4.45;;
70733;SDS011;58320;48.804;9.252;2022-09-02T01:48:11;7.28;;;4.65;;
70733;SDS011;58320;48.804;9.252;2022-09-02T01:50:39;7.10;;;5.20;;
70733;SDS011;58320;48.804;9.252;2022-09-02T01:53:12;6.50;;;5.18;;
70733;SDS011;58320;48.804;9.252;2022-09-02T01:55:39;7.90;;;5.33;;
70733;SDS011;58320;48.804;9.252;2022-09-02T01:58:05;6.53;;;4.85;;
70733;SDS011;58320;48.804;9.252;2022-09-02T02:00:31;7.38;;;5.05;;
70733;SDS011;58320;48.804;9.252;2022-09-02T02:02:57;8.80;;;5.15;;
70733;SDS011;58320;48.804;9.252;2022-09-02T02:05:23;11.60;;;5.13;;
70733;SDS011;58320;48.804;9.252;2022-09-02T02:07:49;7.57;;;5.18;;
70733;SDS011;58320;48.804;9.252;2022-09-02T02:10:16;7.35;;;4.63;;
70733;SDS011;58320;48.804;9.252;2022-09-02T02:12:44;7.38;;;4.80;;
70733;SDS011;58320;48.804;9.252;2022-09-02T02:15:12;7.07;;;4.60;;
70733;SDS011;58320;48.804;9.252;2022-09-02T02:17:41;7.28;;;4.90;;
70733;SDS011;58320;48.804;9.252;2022-09-02T02:20:07;8.05;;;4.85;;
70733;SDS011;58320;48.804;9.252;2022-09-02T02:22:35;8.05;;;5.05;;
70733;SDS011;58320;48.804;9.252;2022-09-02T02:25:01;7.00;;;4.93;;
70733;SDS011;58320;48.804;9.252;2022-09-02T02:27:29;6.97;;;5.47;;
70733;SDS011;58320;48.804;9.252;2022-09-02T02:29:55;6.72;;;4.78;;
70733;SDS011;58320;48.804;9.252;2022-09-02T02:32:21;6.95;;;4.18;;
70733;SDS011;58320;48.804;9.252;2022-09-02T02:34:47;6.30;;;4.60;;
70733;SDS011;58320;48.804;9.252;2022-09-02T02:37:13;7.38;;;5.03;;
70733;SDS011;58320;48.804;9.252;2022-09-02T02:39:40;6.47;;;4.68;;
70733;SDS011;58320;48.804;9.252;2022-09-02T02:42:07;7.18;;;5.20;;
70733;SDS011;58320;48.804;9.252;2022-09-02T02:44:33;7.50;;;5.17;;
70733;SDS011;58320;48.804;9.252;2022-09-02T02:46:59;7.97;;;5.60;;
70733;SDS011;58320;48.804;9.252;2022-09-02T02:49:26;8.02;;;5.50;;
70733;SDS011;58320;48.804;9.252;2022-09-02T02:51:52;6.97;;;5.55;;
70733;SDS011;58320;48.804;9.252;2022-09-02T02:54:18;8.65;;;6.22;;
70733;SDS011;58320;48.804;9.252;2022-09-02T02:56:45;8.90;;;5.97;;
70733;SDS011;58320;48.804;9.252;2022-09-02T02:59:11;9.68;;;6.20;;
70733;SDS011;58320;48.804;9.252;2022-09-02T03:01:37;8.55;;;5.75;;
70733;SDS011;58320;48.804;9.252;2022-09-02T03:04:03;8.98;;;5.78;;
70733;SDS011;58320;48.804;9.252;2022-09-02T03:06:30;7.28;;;5.47;;
70733;SDS011;58320;48.804;9.252;2022-09-02T03:08:56;7.40;;;5.50;;
70733;SDS011;58320;48.804;9.252;2022-09-02T03:11:23;7.57;;;5.43;;
70733;SDS011;58320;48.804;9.252;2022-09-02T03:13:52;8.35;;;5.72;;
70733;SDS011;58320;48.804;9.252;2022-09-02T03:16:18;9.15;;;6.15;;
70733;SDS011;58320;48.804;9.252;2022-09-02T03:18:45;8.57;;;5.95;;
70733;SDS011;58320;48.804;9.252;2022-09-02T03:21:13;9.73;;;5.73;;
70733;SDS011;58320;48.804;9.252;2022-09-02T03:23:40;7.18;;;5.35;;
70733;SDS011;58320;48.804;9.252;2022-09-02T03:26:15;8.82;;;6.05;;
70733;SDS011;58320;48.804;9.252;2022-09-02T03:28:45;7.57;;;5.35;;
70733;SDS011;58320;48.804;9.252;2022-09-02T03:31:16;9.95;;;5.80;;
70733;SDS011;58320;48.804;9.252;2022-09-02T03:33:45;7.67;;;5.40;;
70733;SDS011;58320;48.804;9.252;2022-09-02T03:36:27;7.90;;;6.00;;
70733;SDS011;58320;48.804;9.252;2022-09-02T03:38:57;7.95;;;5.53;;
70733;SDS011;58320;48.804;9.252;2022-09-02T03:41:23;9.10;;;5.63;;
70733;SDS011;58320;48.804;9.252;2022-09-02T03:43:50;8.43;;;5.30;;
70733;SDS011;58320;48.804;9.252;2022-09-02T03:46:16;7.83;;;5.23;;
70733;SDS011;58320;48.804;9.252;2022-09-02T03:48:42;8.20;;;5.70;;
70733;SDS011;58320;48.804;9.252;2022-09-02T03:51:08;8.75;;;5.88;;
70733;SDS011;58320;48.804;9.252;2022-09-02T03:53:34;8.73;;;6.25;;
70733;SDS011;58320;48.804;9.252;2022-09-02T03:56:07;8.57;;;5.80;;
70733;SDS011;58320;48.804;9.252;2022-09-02T03:58:39;7.97;;;5.47;;
70733;SDS011;58320;48.804;9.252;2022-09-02T04:01:07;7.28;;;5.50;;
70733;SDS011;58320;48.804;9.252;2022-09-02T04:03:38;7.15;;;5.20;;
70733;SDS011;58320;48.804;9.252;2022-09-02T04:06:04;8.70;;;5.18;;
70733;SDS011;58320;48.804;9.252;2022-09-02T04:08:35;7.40;;;4.70;;
70733;SDS011;58320;48.804;9.252;2022-09-02T04:11:08;6.85;;;5.00;;
70733;SDS011;58320;48.804;9.252;2022-09-02T04:13:37;8.32;;;5.00;;
70733;SDS011;58320;48.804;9.252;2022-09-02T04:16:07;10.15;;;5.30;;
70733;SDS011;58320;48.804;9.252;2022-09-02T04:18:38;7.83;;;5.47;;
70733;SDS011;58320;48.804;9.252;2022-09-02T04:21:05;7.53;;;5.43;;
70733;SDS011;58320;48.804;9.252;2022-09-02T04:23:31;7.35;;;5.32;;
70733;SDS011;58320;48.804;9.252;2022-09-02T04:25:58;7.88;;;5.32;;
70733;SDS011;58320;48.804;9.252;2022-09-02T04:28:31;7.35;;;5.45;;
70733;SDS011;58320;48.804;9.252;2022-09-02T04:30:57;7.73;;;5.23;;
70733;SDS011;58320;48.804;9.252;2022-09-02T04:33:23;7.47;;;5.47;;
70733;SDS011;58320;48.804;9.252;2022-09-02T04:35:49;7.82;;;5.22;;
70733;SDS011;58320;48.804;9.252;2022-09-02T04:38:16;7.18;;;4.90;;
70733;SDS011;58320;48.804;9.252;2022-09-02T04:40:43;7.50;;;4.93;;
70733;SDS011;58320;48.804;9.252;2022-09-02T04:43:11;8.13;;;5.00;;
70733;SDS011;58320;48.804;9.252;2022-09-02T04:45:42;6.90;;;5.25;;
70733;SDS011;58320;48.804;9.252;2022-09-02T04:48:10;8.23;;;5.10;;
70733;SDS011;58320;48.804;9.252;2022-09-02T04:50:37;9.07;;;5.20;;
70733;SDS011;58320;48.804;9.252;2022-09-02T04:53:04;7.63;;;5.27;;
70733;SDS011;58320;48.804;9.252;2022-09-02T04:55:31;6.78;;;4.82;;
70733;SDS011;58320;48.804;9.252;2022-09-02T04:57:57;8.38;;;5.15;;
70733;SDS011;58320;48.804;9.252;2022-09-02T05:00:23;6.50;;;4.38;;
70733;SDS011;58320;48.804;9.252;2022-09-02T05:02:50;7.43;;;5.13;;
70733;SDS011;58320;48.804;9.252;2022-09-02T05:05:18;7.60;;;5.20;;
70733;SDS011;58320;48.804;9.252;2022-09-02T05:07:44;9.73;;;5.68;;
70733;SDS011;58320;48.804;9.252;2022-09-02T05:10:09;7.78;;;5.22;;
70733;SDS011;58320;48.804;9.252;2022-09-02T05:12:37;7.05;;;4.97;;
70733;SDS011;58320;48.804;9.252;2022-09-02T05:15:04;7.70;;;5.17;;
70733;SDS011;58320;48.804;9.252;2022-09-02T05:17:32;6.55;;;4.90;;
70733;SDS011;58320;48.804;9.252;2022-09-02T05:20:00;7.68;;;5.15;;
70733;SDS011;58320;48.804;9.252;2022-09-02T05:22:27;6.57;;;5.18;;
70733;SDS011;58320;48.804;9.252;2022-09-02T05:24:54;6.15;;;4.28;;
70733;SDS011;58320;48.804;9.252;2022-09-02T05:27:20;7.27;;;4.60;;
70733;SDS011;58320;48.804;9.252;2022-09-02T05:29:47;6.93;;;4.35;;
70733;SDS011;58320;48.804;9.252;2022-09-02T05:32:13;7.13;;;4.97;;
70733;SDS011;58320;48.804;9.252;2022-09-02T05:34:39;7.82;;;5.10;;
70733;SDS011;58320;48.804;9.252;2022-09-02T05:37:05;7.40;;;4.75;;
70733;SDS011;58320;48.804;9.252;2022-09-02T05:39:32;7.37;;;4.80;;
70733;SDS011;58320;48.804;9.252;2022-09-02T05:41:57;5.97;;;4.22;;
70733;SDS011;58320;48.804;9.252;2022-09-02T05:44:24;6.85;;;4.78;;
70733;SDS011;58320;48.804;9.252;2022-09-02T05:46:50;6.38;;;4.25;;
70733;SDS011;58320;48.804;9.252;2022-09-02T05:49:17;8.43;;;4.80;;
70733;SDS011;58320;48.804;9.252;2022-09-02T05:51:49;7.10;;;4.32;;
70733;SDS011;58320;48.804;9.252;2022-09-02T05:54:19;7.32;;;4.93;;
70733;SDS011;58320;48.804;9.252;2022-09-02T05:57:02;7.53;;;5.25;;
70733;SDS011;58320;48.804;9.252;2022-09-02T05:59:33;5.85;;;4.50;;
70733;SDS011;58320;48.804;9.252;2022-09-02T06:02:01;7.60;;;5.17;;
70733;SDS011;58320;48.804;9.252;2022-09-02T06:04:27;6.82;;;5.10;;
70733;SDS011;58320;48.804;9.252;2022-09-02T06:06:53;7.22;;;4.40;;
70733;SDS011;58320;48.804;9.252;2022-09-02T06:09:20;7.72;;;4.82;;
70733;SDS011;58320;48.804;9.252;2022-09-02T06:11:48;6.23;;;3.80;;
70733;SDS011;58320;48.804;9.252;2022-09-02T06:14:19;8.68;;;4.93;;
70733;SDS011;58320;48.804;9.252;2022-09-02T06:16:46;7.18;;;4.32;;
70733;SDS011;58320;48.804;9.252;2022-09-02T06:19:14;6.07;;;4.07;;
70733;SDS011;58320;48.804;9.252;2022-09-02T06:21:41;8.77;;;4.40;;
70733;SDS011;58320;48.804;9.252;2022-09-02T06:24:07;6.53;;;3.87;;
70733;SDS011;58320;48.804;9.252;2022-09-02T06:26:37;5.07;;;3.40;;
70733;SDS011;58320;48.804;9.252;2022-09-02T06:29:04;5.57;;;3.08;;
70733;SDS011;58320;48.804;9.252;2022-09-02T06:31:31;7.90;;;3.80;;
70733;SDS011;58320;48.804;9.252;2022-09-02T06:33:57;5.57;;;3.65;;
70733;SDS011;58320;48.804;9.252;2022-09-02T06:36:26;6.30;;;3.70;;
70733;SDS011;58320;48.804;9.252;2022-09-02T06:38:54;6.07;;;3.50;;
70733;SDS011;58320;48.804;9.252;2022-09-02T06:41:24;5.45;;;3.35;;
70733;SDS011;58320;48.804;9.252;2022-09-02T06:43:57;6.68;;;3.15;;
70733;SDS011;58320;48.804;9.252;2022-09-02T06:46:29;5.53;;;3.28;;
70733;SDS011;58320;48.804;9.252;2022-09-02T06:48:59;4.60;;;3.13;;
70733;SDS011;58320;48.804;9.252;2022-09-02T06:51:39;4.50;;;2.50;;
70733;SDS011;58320;48.804;9.252;2022-09-02T06:54:11;4.90;;;3.20;;
70733;SDS011;58320;48.804;9.252;2022-09-02T06:56:42;5.82;;;3.17;;
70733;SDS011;58320;48.804;9.252;2022-09-02T06:59:09;5.65;;;3.40;;
70733;SDS011;58320;48.804;9.252;2022-09-02T07:01:36;7.47;;;3.33;;
70733;SDS011;58320;48.804;9.252;2022-09-02T07:04:03;5.03;;;3.17;;
70733;SDS011;58320;48.804;9.252;2022-09-02T07:06:48;6.53;;;3.13;;
70733;SDS011;58320;48.804;9.252;2022-09-02T07:09:19;5.07;;;3.40;;
70733;SDS011;58320;48.804;9.252;2022-09-02T07:11:48;5.90;;;3.30;;
70733;SDS011;58320;48.804;9.252;2022-09-02T07:14:16;6.03;;;3.20;;
70733;SDS011;58320;48.804;9.252;2022-09-02T07:16:49;5.32;;;3.10;;
70733;SDS011;58320;48.804;9.252;2022-09-02T07:19:17;4.72;;;2.80;;
70733;SDS011;58320;48.804;9.252;2022-09-02T07:21:43;5.82;;;3.00;;
70733;SDS011;58320;48.804;9.252;2022-09-02T07:24:11;4.45;;;2.80;;
70733;SDS011;58320;48.804;9.252;2022-09-02T07:26:39;5.93;;;3.23;;
70733;SDS011;58320;48.804;9.252;2022-09-02T07:29:05;4.18;;;2.80;;
70733;SDS011;58320;48.804;9.252;2022-09-02T07:31:33;6.30;;;2.67;;
70733;SDS011;58320;48.804;9.252;2022-09-02T07:34:01;6.85;;;3.00;;
70733;SDS011;58320;48.804;9.252;2022-09-02T07:36:30;4.47;;;2.88;;
70733;SDS011;58320;48.804;9.252;2022-09-02T07:38:59;4.07;;;3.00;;
70733;SDS011;58320;48.804;9.252;2022-09-02T07:41:25;4.35;;;2.40;;
70733;SDS011;58320;48.804;9.252;2022-09-02T07:43:51;5.90;;;3.20;;
70733;SDS011;58320;48.804;9.252;2022-09-02T07:46:17;6.05;;;2.92;;
70733;SDS011;58320;48.804;9.252;2022-09-02T07:48:44;4.05;;;2.88;;
70733;SDS011;58320;48.804;9.252;2022-09-02T07:51:10;4.83;;;2.77;;
70733;SDS011;58320;48.804;9.252;2022-09-02T07:53:37;5.97;;;2.80;;
70733;SDS011;58320;48.804;9.252;2022-09-02T07:56:04;4.63;;;2.90;;
70733;SDS011;58320;48.804;9.252;2022-09-02T07:58:30;4.85;;;2.80;;
70733;SDS011;58320;48.804;9.252;2022-09-02T08:00:56;4.40;;;2.95;;
70733;SDS011;58320;48.804;9.252;2022-09-02T08:03:23;5.30;;;2.53;;
70733;SDS011;58320;48.804;9.252;2022-09-02T08:05:50;4.18;;;2.80;;
70733;SDS011;58320;48.804;9.252;2022-09-02T08:08:17;6.22;;;2.70;;
70733;SDS011;58320;48.804;9.252;2022-09-02T08:10:45;4.63;;;2.70;;
70733;SDS011;58320;48.804;9.252;2022-09-02T08:13:15;5.23;;;2.70;;
70733;SDS011;58320;48.804;9.252;2022-09-02T08:15:42;4.20;;;2.60;;
70733;SDS011;58320;48.804;9.252;2022-09-02T08:18:09;3.95;;;2.50;;
70733;SDS011;58320;48.804;9.252;2022-09-02T08:20:35;3.85;;;2.63;;
70733;SDS011;58320;48.804;9.252;2022-09-02T08:23:02;3.83;;;2.30;;
70733;SDS011;58320;48.804;9.252;2022-09-02T08:25:30;3.78;;;2.45;;
70733;SDS011;58320;48.804;9.252;2022-09-02T08:27:57;4.50;;;2.60;;
70733;SDS011;58320;48.804;9.252;2022-09-02T08:30:24;5.20;;;2.60;;
70733;SDS011;58320;48.804;9.252;2022-09-02T08:32:50;4.53;;;2.58;;
70733;SDS011;58320;48.804;9.252;2022-09-02T08:35:16;5.23;;;2.40;;
70733;SDS011;58320;48.804;9.252;2022-09-02T08:37:42;4.38;;;2.42;;
70733;SDS011;58320;48.804;9.252;2022-09-02T08:40:12;3.67;;;2.28;;
70733;SDS011;58320;48.804;9.252;2022-09-02T08:42:44;4.13;;;2.20;;
70733;SDS011;58320;48.804;9.252;2022-09-02T08:47:52;4.80;;;2.42;;
70733;SDS011;58320;48.804;9.252;2022-09-02T08:51:20;4.45;;;2.38;;
70733;SDS011;58320;48.804;9.252;2022-09-02T08:54:09;4.93;;;2.50;;
70733;SDS011;58320;48.804;9.252;2022-09-02T08:56:58;3.30;;;2.00;;
70733;SDS011;58320;48.804;9.252;2022-09-02T08:59:24;4.72;;;2.00;;
70733;SDS011;58320;48.804;9.252;2022-09-02T09:10:50;4.55;;;2.00;;
70733;SDS011;58320;48.804;9.252;2022-09-02T09:16:29;3.30;;;1.88;;
70733;SDS011;58320;48.804;9.252;2022-09-02T09:19:26;3.10;;;1.80;;
70733;SDS011;58320;48.804;9.252;2022-09-02T09:22:20;3.60;;;1.60;;
70733;SDS011;58320;48.804;9.252;2022-09-02T09:24:53;3.50;;;1.83;;
70733;SDS011;58320;48.804;9.252;2022-09-02T09:27:22;3.45;;;1.70;;
70733;SDS011;58320;48.804;9.252;2022-09-02T09:29:48;4.75;;;1.88;;
70733;SDS011;58320;48.804;9.252;2022-09-02T09:32:25;4.50;;;2.20;;
70733;SDS011;58320;48.804;9.252;2022-09-02T09:35:04;2.73;;;1.60;;
70733;SDS011;58320;48.804;9.252;2022-09-02T09:37:36;4.55;;;2.13;;
70733;SDS011;58320;48.804;9.252;2022-09-02T09:42:45;5.97;;;1.95;;
70733;SDS011;58320;48.804;9.252;2022-09-02T09:45:27;3.20;;;1.60;;
70733;SDS011;58320;48.804;9.252;2022-09-02T09:48:12;2.90;;;1.57;;
70733;SDS011;58320;48.804;9.252;2022-09-02T09:50:42;3.77;;;1.63;;
70733;SDS011;58320;48.804;9.252;2022-09-02T09:56:01;4.25;;;1.65;;
70733;SDS011;58320;48.804;9.252;2022-09-02T09:58:33;3.15;;;1.60;;
70733;SDS011;58320;48.804;9.252;2022-09-02T10:01:48;3.15;;;1.70;;
70733;SDS011;58320;48.804;9.252;2022-09-02T10:04:07;3.10;;;1.75;;
70733;SDS011;58320;48.804;9.252;2022-09-02T10:06:54;3.30;;;1.70;;
70733;SDS011;58320;48.804;9.252;2022-09-02T10:09:38;3.88;;;1.65;;
70733;SDS011;58320;48.804;9.252;2022-09-02T10:12:10;2.70;;;1.40;;
70733;SDS011;58320;48.804;9.252;2022-09-02T10:22:41;2.87;;;1.60;;
70733;SDS011;58320;48.804;9.252;2022-09-02T10:25:39;2.83;;;1.50;;
70733;SDS011;58320;48.804;9.252;2022-09-02T10:28:27;3.08;;;1.60;;
70733;SDS011;58320;48.804;9.252;2022-09-02T10:31:22;2.33;;;1.10;;
70733;SDS011;58320;48.804;9.252;2022-09-02T10:34:53;2.78;;;1.60;;
70733;SDS011;58320;48.804;9.252;2022-09-02T10:37:41;2.85;;;1.60;;
70733;SDS011;58320;48.804;9.252;2022-09-02T10:40:42;3.43;;;1.13;;
70733;SDS011;58320;48.804;9.252;2022-09-02T10:43:22;3.13;;;1.60;;
70733;SDS011;58320;48.804;9.252;2022-09-02T10:46:16;2.63;;;1.50;;
70733;SDS011;58320;48.804;9.252;2022-09-02T10:48:50;2.95;;;1.60;;
70733;SDS011;58320;48.804;9.252;2022-09-02T11:31:00;2.63;;;1.58;;
70733;SDS011;58320;48.804;9.252;2022-09-02T11:36:29;3.17;;;1.40;;
70733;SDS011;58320;48.804;9.252;2022-09-02T11:39:07;3.72;;;1.58;;
70733;SDS011;58320;48.804;9.252;2022-09-02T11:41:46;3.03;;;1.73;;
70733;SDS011;58320;48.804;9.252;2022-09-02T11:47:52;2.90;;;1.57;;
70733;SDS011;58320;48.804;9.252;2022-09-02T11:50:51;3.80;;;1.50;;
70733;SDS011;58320;48.804;9.252;2022-09-02T11:53:50;3.25;;;1.40;;
70733;SDS011;58320;48.804;9.252;2022-09-02T11:56:20;3.50;;;1.80;;
70733;SDS011;58320;48.804;9.252;2022-09-02T11:58:50;4.10;;;1.77;;
70733;SDS011;58320;48.804;9.252;2022-09-02T12:01:29;3.90;;;1.45;;
70733;SDS011;58320;48.804;9.252;2022-09-02T12:04:19;3.60;;;1.55;;
70733;SDS011;58320;48.804;9.252;2022-09-02T12:15:00;2.43;;;1.40;;
70733;SDS011;58320;48.804;9.252;2022-09-02T12:17:37;2.63;;;1.30;;
70733;SDS011;58320;48.804;9.252;2022-09-02T12:23:08;3.63;;;1.58;;
70733;SDS011;58320;48.804;9.252;2022-09-02T12:26:12;2.60;;;1.52;;
70733;SDS011;58320;48.804;9.252;2022-09-02T12:28:39;3.35;;;1.60;;
70733;SDS011;58320;48.804;9.252;2022-09-02T12:31:11;3.45;;;1.40;;
70733;SDS011;58320;48.804;9.252;2022-09-02T12:33:52;3.22;;;1.88;;
70733;SDS011;58320;48.804;9.252;2022-09-02T12:47:57;2.75;;;1.45;;
70733;SDS011;58320;48.804;9.252;2022-09-02T12:50:29;3.05;;;1.50;;
70733;SDS011;58320;48.804;9.252;2022-09-02T12:53:33;2.60;;;1.50;;
70733;SDS011;58320;48.804;9.252;2022-09-02T12:56:00;3.35;;;1.60;;
70733;SDS011;58320;48.804;9.252;2022-09-02T12:58:55;3.67;;;1.40;;
70733;SDS011;58320;48.804;9.252;2022-09-02T13:04:26;3.00;;;1.60;;
70733;SDS011;58320;48.804;9.252;2022-09-02T13:33:37;3.20;;;1.75;;
70733;SDS011;58320;48.804;9.252;2022-09-02T13:36:03;3.50;;;1.60;;
70733;SDS011;58320;48.804;9.252;2022-09-02T13:38:29;2.70;;;1.50;;
70733;SDS011;58320;48.804;9.252;2022-09-02T13:40:56;3.47;;;1.60;;
70733;SDS011;58320;48.804;9.252;2022-09-02T13:43:23;2.93;;;1.70;;
70733;SDS011;58320;48.804;9.252;2022-09-02T13:45:51;3.20;;;1.60;;
70733;SDS011;58320;48.804;9.252;2022-09-02T13:48:28;3.30;;;1.60;;
70733;SDS011;58320;48.804;9.252;2022-09-02T13:50:58;3.22;;;1.70;;
70733;SDS011;58320;48.804;9.252;2022-09-02T13:53:34;4.28;;;2.03;;
70733;SDS011;58320;48.804;9.252;2022-09-02T13:56:08;3.03;;;1.55;;
70733;SDS011;58320;48.804;9.252;2022-09-02T13:58:38;2.88;;;1.65;;
70733;SDS011;58320;48.804;9.252;2022-09-02T14:01:26;2.60;;;1.75;;
70733;SDS011;58320;48.804;9.252;2022-09-02T14:03:55;3.72;;;1.73;;
70733;SDS011;58320;48.804;9.252;2022-09-02T14:06:24;3.43;;;1.40;;
70733;SDS011;58320;48.804;9.252;2022-09-02T14:09:01;3.30;;;1.43;;
70733;SDS011;58320;48.804;9.252;2022-09-02T14:11:37;2.80;;;1.70;;
70733;SDS011;58320;48.804;9.252;2022-09-02T14:14:07;2.85;;;1.60;;
70733;SDS011;58320;48.804;9.252;2022-09-02T14:16:38;5.25;;;3.53;;
70733;SDS011;58320;48.804;9.252;2022-09-02T14:21:43;3.30;;;1.90;;
70733;SDS011;58320;48.804;9.252;2022-09-02T14:24:17;3.47;;;1.40;;
70733;SDS011;58320;48.804;9.252;2022-09-02T14:26:47;2.77;;;1.57;;
70733;SDS011;58320;48.804;9.252;2022-09-02T14:29:17;3.70;;;1.70;;
70733;SDS011;58320;48.804;9.252;2022-09-02T14:31:45;2.80;;;1.40;;
70733;SDS011;58320;48.804;9.252;2022-09-02T14:34:34;2.80;;;1.77;;
70733;SDS011;58320;48.804;9.252;2022-09-02T14:42:43;4.10;;;1.75;;
70733;SDS011;58320;48.804;9.252;2022-09-02T14:45:25;2.77;;;1.50;;
70733;SDS011;58320;48.804;9.252;2022-09-02T14:47:55;3.67;;;1.70;;
70733;SDS011;58320;48.804;9.252;2022-09-02T14:50:31;3.47;;;1.30;;
70733;SDS011;58320;48.804;9.252;2022-09-02T14:53:02;3.03;;;1.73;;
70733;SDS011;58320;48.804;9.252;2022-09-02T14:56:05;2.65;;;1.58;;
70733;SDS011;58320;48.804;9.252;2022-09-02T14:58:25;4.18;;;1.77;;
70733;SDS011;58320;48.804;9.252;2022-09-02T15:00:53;2.80;;;1.67;;
70733;SDS011;58320;48.804;9.252;2022-09-02T15:03:23;2.65;;;1.58;;
70733;SDS011;58320;48.804;9.252;2022-09-02T15:05:49;2.80;;;1.50;;
70733;SDS011;58320;48.804;9.252;2022-09-02T15:08:19;2.97;;;1.80;;
70733;SDS011;58320;48.804;9.252;2022-09-02T15:10:45;2.73;;;1.50;;
70733;SDS011;58320;48.804;9.252;2022-09-02T15:13:12;2.90;;;1.77;;
70733;SDS011;58320;48.804;9.252;2022-09-02T15:15:53;3.55;;;1.95;;
70733;SDS011;58320;48.804;9.252;2022-09-02T15:18:20;2.85;;;1.75;;
70733;SDS011;58320;48.804;9.252;2022-09-02T15:20:47;3.65;;;1.90;;
70733;SDS011;58320;48.804;9.252;2022-09-02T15:23:13;3.15;;;1.75;;
70733;SDS011;58320;48.804;9.252;2022-09-02T15:25:39;6.20;;;1.90;;
70733;SDS011;58320;48.804;9.252;2022-09-02T15:28:05;2.67;;;1.67;;
70733;SDS011;58320;48.804;9.252;2022-09-02T15:30:34;2.92;;;1.73;;
70733;SDS011;58320;48.804;9.252;2022-09-02T15:33:04;3.25;;;1.48;;
70733;SDS011;58320;48.804;9.252;2022-09-02T15:35:32;3.25;;;1.75;;
70733;SDS011;58320;48.804;9.252;2022-09-02T15:37:58;3.30;;;1.60;;
70733;SDS011;58320;48.804;9.252;2022-09-02T15:40:29;2.85;;;1.88;;
70733;SDS011;58320;48.804;9.252;2022-09-02T15:42:55;2.83;;;1.50;;
70733;SDS011;58320;48.804;9.252;2022-09-02T15:45:22;2.93;;;1.63;;
70733;SDS011;58320;48.804;9.252;2022-09-02T15:47:49;4.78;;;1.42;;
70733;SDS011;58320;48.804;9.252;2022-09-02T15:50:14;2.83;;;1.75;;
70733;SDS011;58320;48.804;9.252;2022-09-02T15:52:41;2.55;;;1.52;;
70733;SDS011;58320;48.804;9.252;2022-09-02T15:55:06;3.17;;;1.80;;
70733;SDS011;58320;48.804;9.252;2022-09-02T15:57:32;4.80;;;2.10;;
70733;SDS011;58320;48.804;9.252;2022-09-02T15:59:58;3.75;;;1.55;;
70733;SDS011;58320;48.804;9.252;2022-09-02T16:02:24;3.55;;;2.00;;
70733;SDS011;58320;48.804;9.252;2022-09-02T16:04:50;3.63;;;1.87;;
70733;SDS011;58320;48.804;9.252;2022-09-02T16:07:16;3.95;;;1.90;;
70733;SDS011;58320;48.804;9.252;2022-09-02T16:09:42;4.22;;;1.80;;
70733;SDS011;58320;48.804;9.252;2022-09-02T16:12:08;3.13;;;1.80;;
70733;SDS011;58320;48.804;9.252;2022-09-02T16:14:34;3.23;;;1.90;;
70733;SDS011;58320;48.804;9.252;2022-09-02T16:17:00;2.83;;;1.60;;
70733;SDS011;58320;48.804;9.252;2022-09-02T16:19:26;2.80;;;1.80;;
70733;SDS011;58320;48.804;9.252;2022-09-02T16:21:53;3.20;;;1.88;;
70733;SDS011;58320;48.804;9.252;2022-09-02T16:24:19;2.97;;;1.63;;
70733;SDS011;58320;48.804;9.252;2022-09-02T16:26:47;3.45;;;1.95;;
70733;SDS011;58320;48.804;9.252;2022-09-02T16:29:14;3.75;;;1.50;;
70733;SDS011;58320;48.804;9.252;2022-09-02T16:31:42;3.83;;;1.70;;
70733;SDS011;58320;48.804;9.252;2022-09-02T16:34:11;3.33;;;1.80;;
70733;SDS011;58320;48.804;9.252;2022-09-02T16:36:40;5.93;;;2.15;;
70733;SDS011;58320;48.804;9.252;2022-09-02T16:39:08;4.30;;;2.10;;
70733;SDS011;58320;48.804;9.252;2022-09-02T16:41:37;2.83;;;1.70;;
70733;SDS011;58320;48.804;9.252;2022-09-02T16:44:09;4.22;;;1.80;;
70733;SDS011;58320;48.804;9.252;2022-09-02T16:46:41;3.45;;;1.85;;
70733;SDS011;58320;48.804;9.252;2022-09-02T16:49:08;3.45;;;1.80;;
70733;SDS011;58320;48.804;9.252;2022-09-02T16:51:37;3.90;;;1.80;;
70733;SDS011;58320;48.804;9.252;2022-09-02T16:54:05;3.15;;;1.80;;
70733;SDS011;58320;48.804;9.252;2022-09-02T16:56:33;3.87;;;2.10;;
70733;SDS011;58320;48.804;9.252;2022-09-02T16:59:01;3.70;;;1.88;;
70733;SDS011;58320;48.804;9.252;2022-09-02T17:01:29;4.40;;;2.15;;
70733;SDS011;58320;48.804;9.252;2022-09-02T17:03:56;3.83;;;2.10;;
70733;SDS011;58320;48.804;9.252;2022-09-02T17:06:24;3.70;;;1.83;;
70733;SDS011;58320;48.804;9.252;2022-09-02T17:08:50;3.53;;;1.70;;
70733;SDS011;58320;48.804;9.252;2022-09-02T17:13:52;4.60;;;2.00;;
70733;SDS011;58320;48.804;9.252;2022-09-02T17:16:39;4.20;;;2.08;;
70733;SDS011;58320;48.804;9.252;2022-09-02T17:19:08;3.35;;;1.70;;
70733;SDS011;58320;48.804;9.252;2022-09-02T17:21:36;4.33;;;1.60;;
70733;SDS011;58320;48.804;9.252;2022-09-02T17:24:07;4.57;;;2.13;;
70733;SDS011;58320;48.804;9.252;2022-09-02T17:26:35;2.90;;;1.48;;